Leuchars, RAF Leuchars (EGQL)

NameRAF Leuchars
CityLeuchars
CountryUnited Kingdom
ICAOEGQL
IATAADX
Altitude12 m
CoordinatesGoogle Map
Live Air TrafficLiveATC.net
METAREGQL 160050Z 36006KT CAVOK 04/03 Q1012 BLU
2019-11-16 00:50:00 Wind: North (360°) 3.09 m/s - Visibility: > 10000 m - Weather: CAVOK - Temperature: 4 °C - Dew point: 3 °C - Humidity: 93.3% - Pressure: 1012 hPa

Sorry, no flights used the airport in this database.